createdAt,value
2019-03-27T00:00:49.313Z,102041.18
2019-03-27T00:03:13.717Z,102046.22
2019-03-27T00:05:38.299Z,102043.13
2019-03-27T00:08:02.692Z,102046.99
2019-03-27T00:10:27.125Z,102053.48
2019-03-27T00:12:51.538Z,102052.77
2019-03-27T00:15:16.090Z,102061.13
2019-03-27T00:17:40.709Z,102055.78
2019-03-27T00:20:09.771Z,102055.75
2019-03-27T00:22:34.189Z,102051.85
2019-03-27T00:24:58.672Z,102058.02
2019-03-27T00:27:23.091Z,102049.78
2019-03-27T00:29:47.623Z,102055.55
2019-03-27T00:32:12.200Z,102048.52
2019-03-27T00:34:36.613Z,102051.71
2019-03-27T00:37:01.043Z,102045.40
2019-03-27T00:39:25.444Z,102045.31
2019-03-27T00:41:49.952Z,102040.98
2019-03-27T00:44:14.427Z,102047.05
2019-03-27T00:46:38.855Z,102042.78
2019-03-27T00:49:03.265Z,102041.27
2019-03-27T00:51:27.717Z,102043.81
2019-03-27T00:53:52.115Z,102048.30
2019-03-27T00:56:16.538Z,102043.42
2019-03-27T00:58:40.950Z,102040.75
2019-03-27T01:01:09.552Z,102043.89
2019-03-27T01:03:33.952Z,102049.45
2019-03-27T01:05:58.464Z,102049.00
2019-03-27T01:08:22.944Z,102048.91
2019-03-27T01:10:47.397Z,102050.11
2019-03-27T01:13:11.797Z,102050.22
2019-03-27T01:15:40.121Z,102048.27
2019-03-27T01:18:02.497Z,102049.29
2019-03-27T01:20:26.914Z,102048.73
2019-03-27T01:22:51.358Z,102051.83
2019-03-27T01:25:15.846Z,102059.84
2019-03-27T01:27:40.276Z,102057.50
2019-03-27T01:30:06.728Z,102058.41
2019-03-27T01:32:31.161Z,102063.74
2019-03-27T01:34:55.575Z,102058.74
2019-03-27T01:37:20.028Z,102061.09
2019-03-27T01:39:44.492Z,102063.55
2019-03-27T01:42:09.006Z,102056.11
2019-03-27T01:44:33.434Z,102051.88
2019-03-27T01:46:57.885Z,102055.56
2019-03-27T01:49:22.379Z,102054.56
2019-03-27T01:51:46.794Z,102053.61
2019-03-27T01:54:11.241Z,102058.08
2019-03-27T01:56:35.650Z,102053.63
2019-03-27T01:59:00.090Z,102054.59
2019-03-27T02:01:24.525Z,102052.62
2019-03-27T02:03:48.928Z,102054.92
2019-03-27T02:06:13.409Z,102055.80
2019-03-27T02:08:37.851Z,102045.83
2019-03-27T02:11:03.109Z,102051.94
2019-03-27T02:13:27.538Z,102050.25
2019-03-27T02:15:52.022Z,102047.14
2019-03-27T02:18:16.453Z,102045.35
2019-03-27T02:20:40.926Z,102046.73
2019-03-27T02:23:05.506Z,102047.23
2019-03-27T02:25:29.974Z,102047.30
2019-03-27T02:27:54.474Z,102043.65
2019-03-27T02:30:19.028Z,102036.70
2019-03-27T02:32:43.431Z,102041.62
2019-03-27T02:35:07.952Z,102043.50
2019-03-27T02:37:32.367Z,102048.66
2019-03-27T02:39:56.779Z,102048.23
2019-03-27T02:42:21.186Z,102052.67
2019-03-27T02:44:45.633Z,102051.17
2019-03-27T02:47:10.019Z,102044.70
2019-03-27T02:49:34.454Z,102047.42
2019-03-27T02:51:58.856Z,102050.86
2019-03-27T02:54:23.286Z,102047.91
2019-03-27T02:56:47.701Z,102039.42
2019-03-27T02:59:12.171Z,102050.25
2019-03-27T03:01:36.561Z,102039.91
2019-03-27T03:04:01.074Z,102040.59
2019-03-27T03:06:25.673Z,102038.30
2019-03-27T03:08:50.094Z,102040.90
2019-03-27T03:11:14.506Z,102036.81
2019-03-27T03:13:38.927Z,102036.52
2019-03-27T03:16:03.430Z,102047.51
2019-03-27T03:18:27.862Z,102047.36
2019-03-27T03:20:52.278Z,102051.02
2019-03-27T03:23:16.703Z,102052.28
2019-03-27T03:25:41.242Z,102055.77
2019-03-27T03:28:05.642Z,102055.03
2019-03-27T03:30:30.207Z,102052.33
2019-03-27T03:32:54.624Z,102042.17
2019-03-27T03:35:19.160Z,102052.16
2019-03-27T03:37:43.630Z,102053.70
2019-03-27T03:40:09.013Z,102057.81
2019-03-27T03:42:33.970Z,102060.22
2019-03-27T03:44:58.420Z,102061.00
2019-03-27T03:47:22.841Z,102066.19
2019-03-27T03:49:47.271Z,102060.42
2019-03-27T03:52:11.770Z,102055.78
2019-03-27T03:54:36.779Z,102064.51
2019-03-27T03:57:03.743Z,102064.03
2019-03-27T03:59:30.216Z,102069.27
2019-03-27T04:01:55.258Z,102072.91
2019-03-27T04:04:21.657Z,102074.00
2019-03-27T04:06:46.092Z,102074.37
2019-03-27T04:09:10.601Z,102071.55
2019-03-27T04:11:35.085Z,102075.04
2019-03-27T04:13:59.537Z,102073.07
2019-03-27T04:16:23.947Z,102079.06
2019-03-27T04:18:48.354Z,102087.48
2019-03-27T04:21:12.788Z,102087.89
2019-03-27T04:23:37.203Z,102087.13
2019-03-27T04:26:09.478Z,102089.73
2019-03-27T04:28:27.813Z,102081.66
2019-03-27T04:30:52.318Z,102082.77
2019-03-27T04:33:16.795Z,102079.14
2019-03-27T04:35:41.273Z,102087.77
2019-03-27T04:38:05.728Z,102088.12
2019-03-27T04:40:30.264Z,102094.87
2019-03-27T04:42:54.646Z,102089.36
2019-03-27T04:45:19.086Z,102087.13
2019-03-27T04:47:43.516Z,102080.00
2019-03-27T04:50:08.272Z,102079.69
2019-03-27T04:52:32.669Z,102085.34
2019-03-27T04:54:57.221Z,102086.01
2019-03-27T04:57:21.644Z,102084.13
2019-03-27T04:59:46.059Z,102087.16
2019-03-27T05:02:10.469Z,102101.73
2019-03-27T05:04:35.626Z,102106.56
2019-03-27T05:07:00.125Z,102113.35
2019-03-27T05:09:24.541Z,102118.56
2019-03-27T05:11:48.958Z,102117.20
2019-03-27T05:14:13.369Z,102117.20
2019-03-27T05:16:37.826Z,102120.02
2019-03-27T05:19:02.225Z,102113.65
2019-03-27T05:21:26.658Z,102123.80
2019-03-27T05:23:51.149Z,102124.63
2019-03-27T05:26:15.567Z,102128.59
2019-03-27T05:28:39.978Z,102131.23
2019-03-27T05:31:04.415Z,102130.39
2019-03-27T05:33:28.900Z,102130.70
2019-03-27T05:35:53.350Z,102136.66
2019-03-27T05:38:17.757Z,102140.80
2019-03-27T05:40:42.182Z,102138.67
2019-03-27T05:43:06.575Z,102137.47
2019-03-27T05:45:31.001Z,102135.73
2019-03-27T05:47:59.699Z,102138.19
2019-03-27T05:50:21.608Z,102131.70
2019-03-27T05:52:46.048Z,102134.65
2019-03-27T05:55:10.525Z,102139.88
2019-03-27T05:57:34.953Z,102142.50
2019-03-27T05:59:59.438Z,102143.23
2019-03-27T06:02:23.888Z,102152.31
2019-03-27T06:04:48.301Z,102147.37
2019-03-27T06:07:12.827Z,102148.06
2019-03-27T06:09:37.250Z,102145.84
2019-03-27T06:12:01.686Z,102146.61
2019-03-27T06:14:26.097Z,102153.86
2019-03-27T06:16:50.532Z,102155.64
2019-03-27T06:19:14.942Z,102145.72
2019-03-27T06:21:39.448Z,102154.72
2019-03-27T06:24:03.884Z,102156.34
2019-03-27T06:26:28.295Z,102153.89
2019-03-27T06:28:52.701Z,102156.22
2019-03-27T06:31:17.209Z,102158.55
2019-03-27T06:33:41.707Z,102164.16
2019-03-27T06:36:06.146Z,102167.86
2019-03-27T06:38:30.649Z,102165.40
2019-03-27T06:40:55.062Z,102158.02
2019-03-27T06:43:26.884Z,102157.57
2019-03-27T06:45:51.283Z,102157.49
2019-03-27T06:48:25.757Z,102156.14
2019-03-27T06:50:41.908Z,102158.80
2019-03-27T06:53:06.352Z,102158.25
2019-03-27T06:55:30.826Z,102166.54
2019-03-27T06:57:55.277Z,102163.81
2019-03-27T07:00:22.718Z,102168.06
2019-03-27T07:02:47.177Z,102163.20
2019-03-27T07:05:13.462Z,102172.20
2019-03-27T07:07:37.957Z,102132.92
2019-03-27T07:10:02.714Z,102170.83
2019-03-27T07:12:27.138Z,102176.58
2019-03-27T07:14:51.546Z,102174.31
2019-03-27T07:17:15.961Z,102171.13
2019-03-27T07:19:40.418Z,102175.58
2019-03-27T07:22:04.973Z,102182.01
2019-03-27T07:24:29.401Z,102182.29
2019-03-27T07:26:53.815Z,102185.39
2019-03-27T07:29:19.175Z,102177.53
2019-03-27T07:31:43.743Z,102191.59
2019-03-27T07:34:08.309Z,102184.86
2019-03-27T07:36:32.721Z,102194.29
2019-03-27T07:39:10.240Z,102197.92
2019-03-27T07:41:23.273Z,102187.39
2019-03-27T07:43:47.770Z,102186.73
2019-03-27T07:46:12.243Z,102191.91
2019-03-27T07:48:36.764Z,102190.88
2019-03-27T07:51:01.160Z,102197.36
2019-03-27T07:53:25.571Z,102193.27
2019-03-27T07:55:49.987Z,102189.84
2019-03-27T07:58:14.412Z,102198.37
2019-03-27T08:00:38.870Z,102200.18
2019-03-27T08:03:03.353Z,102195.13
2019-03-27T08:05:27.791Z,102200.08
2019-03-27T08:07:52.207Z,102194.45
2019-03-27T08:10:16.784Z,102195.66
2019-03-27T08:12:41.190Z,102203.24
2019-03-27T08:15:07.265Z,102200.81
2019-03-27T08:17:31.698Z,102199.55
2019-03-27T08:19:56.123Z,102199.39
2019-03-27T08:22:20.547Z,102204.84
2019-03-27T08:24:44.983Z,102198.16
2019-03-27T08:27:09.535Z,102194.41
2019-03-27T08:29:33.973Z,102194.70
2019-03-27T08:31:58.383Z,102195.58
2019-03-27T08:34:22.806Z,102201.78
2019-03-27T08:36:47.234Z,102204.53
2019-03-27T08:39:11.710Z,102201.30
2019-03-27T08:41:36.684Z,102211.70
2019-03-27T08:44:01.081Z,102213.31
2019-03-27T08:46:25.519Z,102203.37
2019-03-27T08:48:49.930Z,102218.14
2019-03-27T08:51:14.338Z,102219.38
2019-03-27T08:53:38.748Z,102221.88
2019-03-27T08:56:03.179Z,102211.70
2019-03-27T08:58:27.591Z,102217.82
2019-03-27T09:00:53.864Z,102212.48
2019-03-27T09:03:18.617Z,102222.29
2019-03-27T09:05:43.109Z,102226.97
2019-03-27T09:08:07.516Z,102219.79
2019-03-27T09:10:31.950Z,102230.88
2019-03-27T09:12:56.356Z,102229.95
2019-03-27T09:15:20.786Z,102236.05
2019-03-27T09:17:45.175Z,102237.59
2019-03-27T09:20:10.512Z,102243.40
2019-03-27T09:22:34.951Z,102231.80
2019-03-27T09:24:59.451Z,102239.65
2019-03-27T09:27:23.901Z,102243.47
2019-03-27T09:29:48.300Z,102237.05
2019-03-27T09:32:12.714Z,102236.73
2019-03-27T09:34:37.248Z,102234.04
2019-03-27T09:37:01.681Z,102234.89
2019-03-27T09:39:26.109Z,102247.20
2019-03-27T09:41:50.618Z,102243.17
2019-03-27T09:44:15.040Z,102252.06
2019-03-27T09:46:39.614Z,102238.00
2019-03-27T09:49:04.140Z,102249.23
2019-03-27T09:51:28.548Z,102236.44
2019-03-27T09:53:53.410Z,102237.19
2019-03-27T09:56:19.575Z,102231.30
2019-03-27T09:58:44.154Z,102239.61
2019-03-27T10:01:08.664Z,102250.17
2019-03-27T10:03:33.150Z,102238.81
2019-03-27T10:05:57.732Z,102242.20
2019-03-27T10:08:22.202Z,102243.52
2019-03-27T10:10:46.611Z,102241.64
2019-03-27T10:13:11.019Z,102248.25
2019-03-27T10:15:35.747Z,102256.50
2019-03-27T10:18:00.243Z,102246.42
2019-03-27T10:20:24.666Z,102244.77
2019-03-27T10:22:49.087Z,102245.92
2019-03-27T10:25:13.694Z,102243.01
2019-03-27T10:27:38.230Z,102248.75
2019-03-27T10:30:02.791Z,102248.45
2019-03-27T10:32:27.214Z,102245.97
2019-03-27T10:34:51.637Z,102244.28
2019-03-27T10:37:16.078Z,102247.86
2019-03-27T10:39:40.521Z,102243.26
2019-03-27T10:42:05.065Z,102239.00
2019-03-27T10:44:29.582Z,102237.13
2019-03-27T10:46:54.014Z,102235.21
2019-03-27T10:49:18.571Z,102238.73
2019-03-27T10:51:43.000Z,102238.29
2019-03-27T10:54:07.483Z,102228.30
2019-03-27T10:56:31.903Z,102233.17
2019-03-27T10:58:56.318Z,102239.06
2019-03-27T11:01:20.744Z,102225.75
2019-03-27T11:03:45.171Z,102234.72
2019-03-27T11:06:09.589Z,102223.69
2019-03-27T11:08:34.051Z,102234.25
2019-03-27T11:10:58.465Z,102237.80
2019-03-27T11:13:22.900Z,102232.31
2019-03-27T11:15:47.367Z,102235.76
2019-03-27T11:18:11.942Z,102223.19
2019-03-27T11:20:36.350Z,102215.48
2019-03-27T11:23:00.911Z,102221.88
2019-03-27T11:25:25.397Z,102217.53
2019-03-27T11:27:49.909Z,102210.38
2019-03-27T11:30:15.209Z,102217.75
2019-03-27T11:32:39.616Z,102216.58
2019-03-27T11:35:04.754Z,102214.95
2019-03-27T11:37:29.228Z,102207.23
2019-03-27T11:39:53.753Z,102207.23
2019-03-27T11:42:18.183Z,102206.07
2019-03-27T11:44:42.675Z,102197.83
2019-03-27T11:47:07.190Z,102204.98
2019-03-27T11:49:31.763Z,102211.62
2019-03-27T11:51:56.201Z,102205.05
2019-03-27T11:54:20.704Z,102200.69
2019-03-27T11:56:45.200Z,102198.94
2019-03-27T11:59:09.613Z,102201.00
2019-03-27T12:01:41.983Z,102194.96
2019-03-27T12:04:00.224Z,102202.16
2019-03-27T12:06:24.630Z,102193.29
2019-03-27T12:08:50.827Z,102193.66
2019-03-27T12:11:15.266Z,102194.41
2019-03-27T12:13:39.765Z,102191.59
2019-03-27T12:16:04.457Z,102183.23
2019-03-27T12:18:31.798Z,102184.52
2019-03-27T12:20:59.350Z,102181.63
2019-03-27T12:23:21.303Z,102191.41
2019-03-27T12:25:45.741Z,102190.92
2019-03-27T12:28:10.330Z,102194.78
2019-03-27T12:30:34.869Z,102195.55
2019-03-27T12:32:59.293Z,102194.58
2019-03-27T12:35:23.698Z,102193.41
2019-03-27T12:37:48.089Z,102196.53
2019-03-27T12:40:12.676Z,102191.09
2019-03-27T12:42:37.255Z,102189.17
2019-03-27T12:45:02.324Z,102194.00
2019-03-27T12:47:26.856Z,102188.69
2019-03-27T12:49:52.005Z,102186.88
2019-03-27T12:52:16.465Z,102194.03
2019-03-27T12:54:40.957Z,102198.78
2019-03-27T12:57:05.435Z,102199.94
2019-03-27T12:59:29.873Z,102195.09
2019-03-27T13:01:54.280Z,102192.37
2019-03-27T13:04:18.706Z,102189.47
2019-03-27T13:06:43.258Z,102190.77
2019-03-27T13:09:08.597Z,102195.84
2019-03-27T13:11:33.015Z,102194.14
2019-03-27T13:13:57.436Z,102190.58
2019-03-27T13:16:21.848Z,102198.72
2019-03-27T13:18:46.266Z,102188.48
2019-03-27T13:21:10.735Z,102183.45
2019-03-27T13:23:35.140Z,102187.25
2019-03-27T13:25:59.651Z,102177.59
2019-03-27T13:28:24.054Z,102194.19
2019-03-27T13:30:49.416Z,102181.64
2019-03-27T13:33:13.877Z,102186.99
2019-03-27T13:35:38.330Z,102189.57
2019-03-27T13:38:02.755Z,102190.20
2019-03-27T13:40:27.161Z,102188.55
2019-03-27T13:42:51.576Z,102150.59
2019-03-27T13:45:16.466Z,102190.61
2019-03-27T13:47:40.911Z,102185.06
2019-03-27T13:50:07.859Z,102184.97
2019-03-27T13:52:32.268Z,102172.69
2019-03-27T13:54:56.717Z,102173.20
2019-03-27T13:57:21.207Z,102174.12
2019-03-27T13:59:45.645Z,102171.52
2019-03-27T14:02:11.599Z,102168.17
2019-03-27T14:04:36.029Z,102175.25
2019-03-27T14:07:00.451Z,102166.66
2019-03-27T14:09:25.557Z,102183.02
2019-03-27T14:11:49.980Z,102169.65
2019-03-27T14:14:14.375Z,102178.42
2019-03-27T14:16:38.960Z,102168.41
2019-03-27T14:19:03.336Z,102175.60
2019-03-27T14:21:27.776Z,102175.95
2019-03-27T14:23:52.170Z,102183.98
2019-03-27T14:26:16.603Z,102176.29
2019-03-27T14:28:41.059Z,102182.64
2019-03-27T14:31:05.658Z,102187.59
2019-03-27T14:33:30.051Z,102177.64
2019-03-27T14:35:54.623Z,102187.03
2019-03-27T14:38:19.092Z,102188.34
2019-03-27T14:40:43.525Z,102193.15
2019-03-27T14:43:07.940Z,102190.78
2019-03-27T14:45:32.367Z,102188.58
2019-03-27T14:47:56.788Z,102190.53
2019-03-27T14:50:21.225Z,102188.98
2019-03-27T14:52:45.642Z,102190.91
2019-03-27T14:55:10.690Z,102192.73
2019-03-27T14:57:35.183Z,102189.17
2019-03-27T14:59:59.595Z,102190.76
2019-03-27T15:02:24.071Z,102201.69
2019-03-27T15:04:48.475Z,102200.07
2019-03-27T15:07:13.340Z,102200.67
2019-03-27T15:09:37.781Z,102198.50
2019-03-27T15:12:02.231Z,102198.72
2019-03-27T15:14:26.803Z,102195.31
2019-03-27T15:16:51.276Z,102198.12
2019-03-27T15:19:15.738Z,102190.79
2019-03-27T15:21:40.166Z,102201.48
2019-03-27T15:24:04.626Z,102210.22
2019-03-27T15:26:29.050Z,102204.50
2019-03-27T15:28:53.456Z,102206.02
2019-03-27T15:31:20.799Z,102204.45
2019-03-27T15:33:44.076Z,102208.41
2019-03-27T15:36:08.610Z,102200.10
2019-03-27T15:38:33.028Z,102163.00
2019-03-27T15:40:57.523Z,102207.25
2019-03-27T15:43:22.051Z,102193.76
2019-03-27T15:45:46.672Z,102194.76
2019-03-27T15:48:11.143Z,102207.44
2019-03-27T15:50:35.637Z,102209.42
2019-03-27T15:53:00.129Z,102201.67
2019-03-27T15:55:24.598Z,102201.47
2019-03-27T15:57:49.035Z,102200.28
2019-03-27T16:00:15.326Z,102203.63
2019-03-27T16:02:39.760Z,102199.31
2019-03-27T16:05:05.722Z,102204.45
2019-03-27T16:07:31.380Z,102200.52
2019-03-27T16:09:56.100Z,102204.08
2019-03-27T16:12:20.585Z,102196.92
2019-03-27T16:14:44.994Z,102198.11
2019-03-27T16:17:13.533Z,102197.90
2019-03-27T16:19:35.602Z,102195.34
2019-03-27T16:22:00.016Z,102192.87
2019-03-27T16:24:24.433Z,102186.39
2019-03-27T16:27:03.578Z,102191.55
2019-03-27T16:29:14.969Z,102199.91
2019-03-27T16:31:39.454Z,102198.29
2019-03-27T16:34:04.014Z,102197.69
2019-03-27T16:36:28.545Z,102201.45
2019-03-27T16:38:52.957Z,102199.28
2019-03-27T16:41:17.356Z,102206.23
2019-03-27T16:43:44.162Z,102204.96
2019-03-27T16:46:08.286Z,102201.23
2019-03-27T16:48:32.714Z,102204.62
2019-03-27T16:50:57.121Z,102205.61
2019-03-27T16:53:21.560Z,102209.58
2019-03-27T16:55:46.196Z,102215.97
2019-03-27T16:58:10.733Z,102210.77
2019-03-27T17:00:35.261Z,102216.48
2019-03-27T17:03:02.468Z,102215.17
2019-03-27T17:05:26.890Z,102218.69
2019-03-27T17:07:51.321Z,102217.14
2019-03-27T17:10:15.932Z,102220.70
2019-03-27T17:12:40.381Z,102226.89
2019-03-27T17:15:06.209Z,102227.84
2019-03-27T17:17:30.743Z,102228.16
2019-03-27T17:19:55.136Z,102231.05
2019-03-27T17:22:20.141Z,102238.11
2019-03-27T17:24:44.743Z,102230.90
2019-03-27T17:27:09.173Z,102238.45
2019-03-27T17:29:33.578Z,102237.33
2019-03-27T17:31:57.991Z,102233.75
2019-03-27T17:34:22.425Z,102247.83
2019-03-27T17:36:46.834Z,102254.30
2019-03-27T17:39:11.339Z,102253.37
2019-03-27T17:41:35.800Z,102251.11
2019-03-27T17:44:00.236Z,102253.05
2019-03-27T17:46:24.638Z,102257.03
2019-03-27T17:48:49.065Z,102265.78
2019-03-27T17:51:13.468Z,102262.12
2019-03-27T17:53:37.888Z,102270.98
2019-03-27T17:56:02.298Z,102265.44
2019-03-27T17:58:26.807Z,102277.84
2019-03-27T18:00:52.217Z,102268.95
2019-03-27T18:03:16.703Z,102282.62
2019-03-27T18:05:41.111Z,102277.91
2019-03-27T18:08:05.615Z,102274.14
2019-03-27T18:10:30.018Z,102279.69
2019-03-27T18:12:54.415Z,102276.12
2019-03-27T18:15:18.856Z,102283.25
2019-03-27T18:17:43.269Z,102280.61
2019-03-27T18:20:07.777Z,102286.92
2019-03-27T18:22:32.185Z,102291.41
2019-03-27T18:24:56.611Z,102288.03
2019-03-27T18:27:21.012Z,102292.47
2019-03-27T18:29:45.455Z,102294.33
2019-03-27T18:32:09.940Z,102284.48
2019-03-27T18:34:34.437Z,102290.97
2019-03-27T18:36:58.841Z,102293.80
2019-03-27T18:39:23.267Z,102297.01
2019-03-27T18:41:47.695Z,102300.02
2019-03-27T18:44:12.457Z,102295.81
2019-03-27T18:46:36.986Z,102300.87
2019-03-27T18:49:01.412Z,102307.86
2019-03-27T18:51:26.043Z,102309.86
2019-03-27T18:53:59.676Z,102316.53
2019-03-27T18:56:16.647Z,102303.95
2019-03-27T18:58:41.048Z,102311.50
2019-03-27T19:01:05.609Z,102310.22
2019-03-27T19:03:30.024Z,102318.80
2019-03-27T19:05:54.448Z,102314.87
2019-03-27T19:08:18.923Z,102319.77
2019-03-27T19:10:43.530Z,102313.58
2019-03-27T19:13:07.930Z,102322.25
2019-03-27T19:15:32.436Z,102316.75
2019-03-27T19:17:56.923Z,102315.70
2019-03-27T19:20:21.434Z,102318.84
2019-03-27T19:22:45.869Z,102317.92
2019-03-27T19:25:10.359Z,102319.42
2019-03-27T19:27:34.759Z,102319.42
2019-03-27T19:29:59.191Z,102317.68
2019-03-27T19:32:23.682Z,102321.77
2019-03-27T19:34:51.110Z,102315.27
2019-03-27T19:37:15.710Z,102319.93
2019-03-27T19:39:40.177Z,102321.27
2019-03-27T19:42:04.725Z,102315.55
2019-03-27T19:44:29.190Z,102319.13
2019-03-27T19:46:53.630Z,102322.38
2019-03-27T19:49:18.231Z,102321.03
2019-03-27T19:51:42.724Z,102316.25
2019-03-27T19:54:08.235Z,102313.18
2019-03-27T19:56:32.742Z,102316.01
2019-03-27T19:58:57.138Z,102320.05
2019-03-27T20:01:21.570Z,102319.02
2019-03-27T20:03:46.049Z,102317.23
2019-03-27T20:06:10.472Z,102320.06
2019-03-27T20:08:34.879Z,102319.34
2019-03-27T20:10:59.342Z,102314.17
2019-03-27T20:13:23.750Z,102315.89
2019-03-27T20:15:48.314Z,102313.34
2019-03-27T20:18:12.779Z,102314.11
2019-03-27T20:20:37.288Z,102321.37
2019-03-27T20:23:14.269Z,102318.03
2019-03-27T20:25:27.946Z,102317.00
2019-03-27T20:27:52.397Z,102320.56
2019-03-27T20:30:19.191Z,102324.20
2019-03-27T20:32:43.597Z,102326.61
2019-03-27T20:35:08.148Z,102319.74
2019-03-27T20:37:32.583Z,102321.92
2019-03-27T20:39:57.150Z,102314.78
2019-03-27T20:42:21.597Z,102319.91
2019-03-27T20:44:46.011Z,102311.40
2019-03-27T20:47:10.552Z,102320.83
2019-03-27T20:49:34.967Z,102314.17
2019-03-27T20:51:59.568Z,102318.48
2019-03-27T20:54:23.962Z,102312.06
2019-03-27T20:56:48.398Z,102318.30
2019-03-27T20:59:12.802Z,102320.91
2019-03-27T21:01:37.313Z,102313.86
2019-03-27T21:04:01.726Z,102306.77
2019-03-27T21:06:26.141Z,102312.64
2019-03-27T21:08:50.647Z,102315.89
2019-03-27T21:11:15.062Z,102314.20
2019-03-27T21:13:41.208Z,102311.84
2019-03-27T21:16:05.663Z,102318.84
2019-03-27T21:18:30.113Z,102311.80
2019-03-27T21:20:54.693Z,102319.64
2019-03-27T21:23:19.119Z,102313.34
2019-03-27T21:25:43.536Z,102322.00
2019-03-27T21:28:08.046Z,102324.84
2019-03-27T21:30:32.483Z,102321.31
2019-03-27T21:32:56.950Z,102331.70
2019-03-27T21:35:21.375Z,102325.69
2019-03-27T21:37:45.830Z,102323.33
2019-03-27T21:40:10.614Z,102333.05
2019-03-27T21:42:35.149Z,102328.52
2019-03-27T21:44:59.574Z,102332.00
2019-03-27T21:47:24.023Z,102331.08
2019-03-27T21:49:48.565Z,102323.36
2019-03-27T21:52:12.992Z,102332.15
2019-03-27T21:54:37.546Z,102326.95
2019-03-27T21:57:01.984Z,102335.48
2019-03-27T21:59:26.432Z,102326.78
2019-03-27T22:01:50.872Z,102335.53
2019-03-27T22:04:15.388Z,102332.41
2019-03-27T22:06:39.901Z,102334.41
2019-03-27T22:09:06.394Z,102333.34
2019-03-27T22:11:30.823Z,102336.78
2019-03-27T22:13:55.275Z,102340.94
2019-03-27T22:16:19.722Z,102342.73
2019-03-27T22:18:44.167Z,102340.80
2019-03-27T22:21:08.668Z,102347.94
2019-03-27T22:23:34.634Z,102347.45
2019-03-27T22:25:59.069Z,102345.84
2019-03-27T22:28:23.537Z,102344.63
2019-03-27T22:30:48.105Z,102344.15
2019-03-27T22:33:12.563Z,102345.84
2019-03-27T22:35:36.995Z,102353.06
2019-03-27T22:38:01.481Z,102351.70
2019-03-27T22:40:25.927Z,102360.02
2019-03-27T22:42:50.346Z,102356.58
2019-03-27T22:45:14.878Z,102354.25
2019-03-27T22:47:39.305Z,102353.67
2019-03-27T22:50:08.021Z,102358.02
2019-03-27T22:52:31.826Z,102353.62
2019-03-27T22:54:56.288Z,102361.45
2019-03-27T22:57:20.716Z,102355.55
2019-03-27T22:59:45.171Z,102352.51
2019-03-27T23:02:09.695Z,102353.64
2019-03-27T23:04:34.138Z,102360.02
2019-03-27T23:06:58.656Z,102360.56
2019-03-27T23:09:23.111Z,102363.00
2019-03-27T23:11:47.548Z,102365.71
2019-03-27T23:14:12.285Z,102362.53
2019-03-27T23:16:36.723Z,102365.94
2019-03-27T23:19:01.181Z,102366.52
2019-03-27T23:21:25.694Z,102368.38
2019-03-27T23:23:50.140Z,102363.72
2019-03-27T23:26:14.575Z,102372.34
2019-03-27T23:28:39.013Z,102371.22
2019-03-27T23:31:03.545Z,102367.04
2019-03-27T23:33:27.982Z,102370.84
2019-03-27T23:35:52.511Z,102371.14
2019-03-27T23:38:16.950Z,102360.95
2019-03-27T23:40:41.540Z,102368.54
2019-03-27T23:43:05.970Z,102368.59
2019-03-27T23:45:30.424Z,102365.96
2019-03-27T23:47:54.891Z,102366.02
2019-03-27T23:50:19.341Z,102364.77
2019-03-27T23:52:43.871Z,102371.39
2019-03-27T23:55:08.552Z,102367.80
2019-03-27T23:57:32.987Z,102369.28
2019-03-27T23:59:57.434Z,102366.83
